sensor_id;sensor_type;location;lat;lon;timestamp;P1;durP1;ratioP1;P2;durP2;ratioP2
45764;SDS011;31474;45.332;10.230;2022-07-09T00:02:11;2.75;;;1.30;;
45764;SDS011;31474;45.332;10.230;2022-07-09T00:04:37;1.60;;;1.10;;
45764;SDS011;31474;45.332;10.230;2022-07-09T00:07:02;2.33;;;1.40;;
45764;SDS011;31474;45.332;10.230;2022-07-09T00:09:29;1.60;;;1.30;;
45764;SDS011;31474;45.332;10.230;2022-07-09T00:11:54;1.90;;;1.20;;
45764;SDS011;31474;45.332;10.230;2022-07-09T00:14:21;1.10;;;0.90;;
45764;SDS011;31474;45.332;10.230;2022-07-09T00:16:47;1.50;;;1.33;;
45764;SDS011;31474;45.332;10.230;2022-07-09T00:19:13;1.95;;;1.38;;
45764;SDS011;31474;45.332;10.230;2022-07-09T00:21:39;2.00;;;1.30;;
45764;SDS011;31474;45.332;10.230;2022-07-09T00:24:05;1.73;;;1.45;;
45764;SDS011;31474;45.332;10.230;2022-07-09T00:26:31;5.47;;;1.60;;
45764;SDS011;31474;45.332;10.230;2022-07-09T00:28:57;1.95;;;1.20;;
45764;SDS011;31474;45.332;10.230;2022-07-09T00:31:22;3.30;;;1.60;;
45764;SDS011;31474;45.332;10.230;2022-07-09T00:33:48;6.60;;;1.42;;
45764;SDS011;31474;45.332;10.230;2022-07-09T00:36:14;1.92;;;1.60;;
45764;SDS011;31474;45.332;10.230;2022-07-09T00:38:39;5.10;;;1.40;;
45764;SDS011;31474;45.332;10.230;2022-07-09T00:41:05;2.95;;;1.63;;
45764;SDS011;31474;45.332;10.230;2022-07-09T00:43:31;4.03;;;1.52;;
45764;SDS011;31474;45.332;10.230;2022-07-09T00:45:56;1.33;;;1.23;;
45764;SDS011;31474;45.332;10.230;2022-07-09T00:48:22;2.65;;;1.42;;
45764;SDS011;31474;45.332;10.230;2022-07-09T00:50:48;1.55;;;1.45;;
45764;SDS011;31474;45.332;10.230;2022-07-09T00:53:15;1.80;;;1.60;;
45764;SDS011;31474;45.332;10.230;2022-07-09T00:55:42;4.60;;;1.65;;
45764;SDS011;31474;45.332;10.230;2022-07-09T00:58:11;4.85;;;1.88;;
45764;SDS011;31474;45.332;10.230;2022-07-09T01:00:38;2.15;;;1.30;;
45764;SDS011;31474;45.332;10.230;2022-07-09T01:03:05;1.48;;;1.30;;
45764;SDS011;31474;45.332;10.230;2022-07-09T01:05:31;1.77;;;1.30;;
45764;SDS011;31474;45.332;10.230;2022-07-09T01:08:01;2.10;;;1.30;;
45764;SDS011;31474;45.332;10.230;2022-07-09T01:10:32;4.63;;;1.40;;
45764;SDS011;31474;45.332;10.230;2022-07-09T01:12:59;6.78;;;1.58;;
45764;SDS011;31474;45.332;10.230;2022-07-09T01:15:25;1.80;;;1.50;;
45764;SDS011;31474;45.332;10.230;2022-07-09T01:17:51;1.67;;;1.52;;
45764;SDS011;31474;45.332;10.230;2022-07-09T01:20:18;2.53;;;1.90;;
45764;SDS011;31474;45.332;10.230;2022-07-09T01:22:48;1.90;;;1.60;;
45764;SDS011;31474;45.332;10.230;2022-07-09T01:25:14;2.60;;;2.05;;
45764;SDS011;31474;45.332;10.230;2022-07-09T01:27:41;6.13;;;2.35;;
45764;SDS011;31474;45.332;10.230;2022-07-09T01:30:07;5.55;;;2.10;;
45764;SDS011;31474;45.332;10.230;2022-07-09T01:32:33;3.05;;;1.83;;
45764;SDS011;31474;45.332;10.230;2022-07-09T01:34:59;3.22;;;2.20;;
45764;SDS011;31474;45.332;10.230;2022-07-09T01:37:25;2.50;;;2.08;;
45764;SDS011;31474;45.332;10.230;2022-07-09T01:39:51;2.22;;;1.90;;
45764;SDS011;31474;45.332;10.230;2022-07-09T01:42:17;2.97;;;2.35;;
45764;SDS011;31474;45.332;10.230;2022-07-09T01:44:43;2.45;;;2.20;;
45764;SDS011;31474;45.332;10.230;2022-07-09T01:47:10;3.50;;;2.47;;
45764;SDS011;31474;45.332;10.230;2022-07-09T01:49:36;5.68;;;2.40;;
45764;SDS011;31474;45.332;10.230;2022-07-09T01:52:03;3.50;;;3.03;;
45764;SDS011;31474;45.332;10.230;2022-07-09T01:54:29;4.80;;;2.42;;
45764;SDS011;31474;45.332;10.230;2022-07-09T01:56:54;3.03;;;2.60;;
45764;SDS011;31474;45.332;10.230;2022-07-09T01:59:20;2.97;;;2.33;;
45764;SDS011;31474;45.332;10.230;2022-07-09T02:01:46;3.55;;;2.70;;
45764;SDS011;31474;45.332;10.230;2022-07-09T02:04:12;2.95;;;2.60;;
45764;SDS011;31474;45.332;10.230;2022-07-09T02:06:38;4.78;;;2.55;;
45764;SDS011;31474;45.332;10.230;2022-07-09T02:09:04;4.80;;;3.58;;
45764;SDS011;31474;45.332;10.230;2022-07-09T02:11:29;4.80;;;2.90;;
45764;SDS011;31474;45.332;10.230;2022-07-09T02:13:55;4.50;;;3.13;;
45764;SDS011;31474;45.332;10.230;2022-07-09T02:16:20;4.28;;;2.65;;
45764;SDS011;31474;45.332;10.230;2022-07-09T02:18:46;4.50;;;2.70;;
45764;SDS011;31474;45.332;10.230;2022-07-09T02:21:12;3.42;;;2.75;;
45764;SDS011;31474;45.332;10.230;2022-07-09T02:23:37;4.07;;;3.00;;
45764;SDS011;31474;45.332;10.230;2022-07-09T02:26:03;4.40;;;3.42;;
45764;SDS011;31474;45.332;10.230;2022-07-09T02:28:29;3.95;;;2.70;;
45764;SDS011;31474;45.332;10.230;2022-07-09T02:30:55;4.60;;;3.10;;
45764;SDS011;31474;45.332;10.230;2022-07-09T02:33:22;6.85;;;3.05;;
45764;SDS011;31474;45.332;10.230;2022-07-09T02:35:48;4.25;;;3.00;;
45764;SDS011;31474;45.332;10.230;2022-07-09T02:38:14;4.15;;;2.97;;
45764;SDS011;31474;45.332;10.230;2022-07-09T02:40:39;5.40;;;2.85;;
45764;SDS011;31474;45.332;10.230;2022-07-09T02:43:05;3.75;;;3.10;;
45764;SDS011;31474;45.332;10.230;2022-07-09T02:45:31;2.97;;;2.55;;
45764;SDS011;31474;45.332;10.230;2022-07-09T02:47:56;2.60;;;2.38;;
45764;SDS011;31474;45.332;10.230;2022-07-09T02:50:22;6.68;;;2.80;;
45764;SDS011;31474;45.332;10.230;2022-07-09T02:52:48;5.10;;;2.30;;
45764;SDS011;31474;45.332;10.230;2022-07-09T02:55:13;4.65;;;2.67;;
45764;SDS011;31474;45.332;10.230;2022-07-09T02:57:39;2.13;;;1.92;;
45764;SDS011;31474;45.332;10.230;2022-07-09T03:00:05;4.53;;;2.50;;
45764;SDS011;31474;45.332;10.230;2022-07-09T03:02:31;3.25;;;2.53;;
45764;SDS011;31474;45.332;10.230;2022-07-09T03:04:57;4.85;;;2.75;;
45764;SDS011;31474;45.332;10.230;2022-07-09T03:07:23;6.35;;;2.10;;
45764;SDS011;31474;45.332;10.230;2022-07-09T03:09:48;3.28;;;2.15;;
45764;SDS011;31474;45.332;10.230;2022-07-09T03:12:14;3.70;;;1.92;;
45764;SDS011;31474;45.332;10.230;2022-07-09T03:14:40;2.10;;;1.80;;
45764;SDS011;31474;45.332;10.230;2022-07-09T03:17:06;1.85;;;1.67;;
45764;SDS011;31474;45.332;10.230;2022-07-09T03:19:31;3.47;;;2.15;;
45764;SDS011;31474;45.332;10.230;2022-07-09T03:21:57;4.18;;;1.40;;
45764;SDS011;31474;45.332;10.230;2022-07-09T03:24:23;4.32;;;1.73;;
45764;SDS011;31474;45.332;10.230;2022-07-09T03:26:48;2.63;;;1.60;;
45764;SDS011;31474;45.332;10.230;2022-07-09T03:29:14;2.35;;;1.70;;
45764;SDS011;31474;45.332;10.230;2022-07-09T03:31:40;4.20;;;1.60;;
45764;SDS011;31474;45.332;10.230;2022-07-09T03:34:06;2.45;;;1.80;;
45764;SDS011;31474;45.332;10.230;2022-07-09T03:36:32;2.70;;;1.60;;
45764;SDS011;31474;45.332;10.230;2022-07-09T03:38:58;3.65;;;1.55;;
45764;SDS011;31474;45.332;10.230;2022-07-09T03:41:23;1.88;;;1.50;;
45764;SDS011;31474;45.332;10.230;2022-07-09T03:43:49;1.92;;;1.50;;
45764;SDS011;31474;45.332;10.230;2022-07-09T03:46:14;2.83;;;1.90;;
45764;SDS011;31474;45.332;10.230;2022-07-09T03:48:40;2.13;;;1.70;;
45764;SDS011;31474;45.332;10.230;2022-07-09T03:51:06;2.22;;;1.80;;
45764;SDS011;31474;45.332;10.230;2022-07-09T03:53:32;1.90;;;1.70;;
45764;SDS011;31474;45.332;10.230;2022-07-09T03:55:58;2.53;;;1.63;;
45764;SDS011;31474;45.332;10.230;2022-07-09T03:58:23;2.10;;;1.90;;
45764;SDS011;31474;45.332;10.230;2022-07-09T04:00:49;3.80;;;2.30;;
45764;SDS011;31474;45.332;10.230;2022-07-09T04:03:17;3.08;;;2.40;;
45764;SDS011;31474;45.332;10.230;2022-07-09T04:05:44;3.53;;;2.60;;
45764;SDS011;31474;45.332;10.230;2022-07-09T04:08:10;3.25;;;2.35;;
45764;SDS011;31474;45.332;10.230;2022-07-09T04:10:36;5.35;;;2.58;;
45764;SDS011;31474;45.332;10.230;2022-07-09T04:13:01;4.80;;;2.28;;
45764;SDS011;31474;45.332;10.230;2022-07-09T04:15:27;3.28;;;2.38;;
45764;SDS011;31474;45.332;10.230;2022-07-09T04:17:53;2.60;;;1.90;;
45764;SDS011;31474;45.332;10.230;2022-07-09T04:20:18;3.55;;;1.80;;
45764;SDS011;31474;45.332;10.230;2022-07-09T04:22:44;2.15;;;1.95;;
45764;SDS011;31474;45.332;10.230;2022-07-09T04:25:10;2.30;;;2.05;;
45764;SDS011;31474;45.332;10.230;2022-07-09T04:27:36;3.28;;;1.73;;
45764;SDS011;31474;45.332;10.230;2022-07-09T04:30:04;3.08;;;1.73;;
45764;SDS011;31474;45.332;10.230;2022-07-09T04:32:31;6.18;;;1.75;;
45764;SDS011;31474;45.332;10.230;2022-07-09T04:34:57;5.15;;;2.10;;
45764;SDS011;31474;45.332;10.230;2022-07-09T04:37:22;2.00;;;1.85;;
45764;SDS011;31474;45.332;10.230;2022-07-09T04:39:48;4.45;;;2.22;;
45764;SDS011;31474;45.332;10.230;2022-07-09T04:42:13;4.80;;;2.17;;
45764;SDS011;31474;45.332;10.230;2022-07-09T04:44:39;4.68;;;2.42;;
45764;SDS011;31474;45.332;10.230;2022-07-09T04:47:07;3.97;;;2.08;;
45764;SDS011;31474;45.332;10.230;2022-07-09T04:49:33;2.70;;;2.05;;
45764;SDS011;31474;45.332;10.230;2022-07-09T04:51:58;3.88;;;2.42;;
45764;SDS011;31474;45.332;10.230;2022-07-09T04:54:24;2.40;;;2.15;;
45764;SDS011;31474;45.332;10.230;2022-07-09T04:56:50;4.53;;;2.40;;
45764;SDS011;31474;45.332;10.230;2022-07-09T04:59:15;3.50;;;3.00;;
45764;SDS011;31474;45.332;10.230;2022-07-09T05:01:41;4.40;;;2.63;;
45764;SDS011;31474;45.332;10.230;2022-07-09T05:04:07;3.13;;;2.55;;
45764;SDS011;31474;45.332;10.230;2022-07-09T05:06:32;3.83;;;2.13;;
45764;SDS011;31474;45.332;10.230;2022-07-09T05:08:58;3.30;;;2.33;;
45764;SDS011;31474;45.332;10.230;2022-07-09T05:11:24;6.57;;;2.22;;
45764;SDS011;31474;45.332;10.230;2022-07-09T05:13:50;2.60;;;2.13;;
45764;SDS011;31474;45.332;10.230;2022-07-09T05:16:16;2.65;;;2.30;;
45764;SDS011;31474;45.332;10.230;2022-07-09T05:18:41;7.28;;;2.42;;
45764;SDS011;31474;45.332;10.230;2022-07-09T05:21:07;2.53;;;2.10;;
45764;SDS011;31474;45.332;10.230;2022-07-09T05:23:33;3.10;;;2.40;;
45764;SDS011;31474;45.332;10.230;2022-07-09T05:25:59;5.80;;;2.75;;
45764;SDS011;31474;45.332;10.230;2022-07-09T05:28:25;4.93;;;1.92;;
45764;SDS011;31474;45.332;10.230;2022-07-09T05:30:51;3.25;;;1.65;;
45764;SDS011;31474;45.332;10.230;2022-07-09T05:33:16;5.05;;;1.67;;
45764;SDS011;31474;45.332;10.230;2022-07-09T05:35:42;2.13;;;1.75;;
45764;SDS011;31474;45.332;10.230;2022-07-09T05:38:08;6.47;;;1.77;;
45764;SDS011;31474;45.332;10.230;2022-07-09T05:40:34;1.58;;;1.25;;
45764;SDS011;31474;45.332;10.230;2022-07-09T05:42:59;1.73;;;1.50;;
45764;SDS011;31474;45.332;10.230;2022-07-09T05:45:25;3.70;;;1.13;;
45764;SDS011;31474;45.332;10.230;2022-07-09T05:47:50;1.95;;;1.10;;
45764;SDS011;31474;45.332;10.230;2022-07-09T05:50:16;1.30;;;0.82;;
45764;SDS011;31474;45.332;10.230;2022-07-09T05:52:42;1.73;;;1.30;;
45764;SDS011;31474;45.332;10.230;2022-07-09T05:55:07;4.13;;;1.35;;
45764;SDS011;31474;45.332;10.230;2022-07-09T05:57:33;2.47;;;1.50;;
45764;SDS011;31474;45.332;10.230;2022-07-09T05:59:59;3.55;;;1.35;;
45764;SDS011;31474;45.332;10.230;2022-07-09T06:02:25;2.03;;;1.50;;
45764;SDS011;31474;45.332;10.230;2022-07-09T06:04:50;3.40;;;1.13;;
45764;SDS011;31474;45.332;10.230;2022-07-09T06:07:16;1.95;;;1.75;;
45764;SDS011;31474;45.332;10.230;2022-07-09T06:09:42;3.28;;;1.98;;
45764;SDS011;31474;45.332;10.230;2022-07-09T06:12:07;4.95;;;1.70;;
45764;SDS011;31474;45.332;10.230;2022-07-09T06:14:33;2.50;;;1.45;;
45764;SDS011;31474;45.332;10.230;2022-07-09T06:16:59;4.68;;;1.67;;
45764;SDS011;31474;45.332;10.230;2022-07-09T06:19:31;1.73;;;1.42;;
45764;SDS011;31474;45.332;10.230;2022-07-09T06:22:00;2.08;;;1.40;;
45764;SDS011;31474;45.332;10.230;2022-07-09T06:24:26;2.45;;;1.33;;
45764;SDS011;31474;45.332;10.230;2022-07-09T06:26:52;2.40;;;1.15;;
45764;SDS011;31474;45.332;10.230;2022-07-09T06:29:18;1.33;;;0.90;;
45764;SDS011;31474;45.332;10.230;2022-07-09T06:31:44;1.48;;;1.10;;
45764;SDS011;31474;45.332;10.230;2022-07-09T06:34:10;2.05;;;1.42;;
45764;SDS011;31474;45.332;10.230;2022-07-09T06:36:37;3.00;;;1.58;;
45764;SDS011;31474;45.332;10.230;2022-07-09T06:39:03;2.13;;;1.20;;
45764;SDS011;31474;45.332;10.230;2022-07-09T06:41:47;1.65;;;1.08;;
45764;SDS011;31474;45.332;10.230;2022-07-09T06:44:13;2.08;;;1.20;;
45764;SDS011;31474;45.332;10.230;2022-07-09T06:46:39;1.52;;;1.20;;
45764;SDS011;31474;45.332;10.230;2022-07-09T06:49:05;2.88;;;1.00;;
45764;SDS011;31474;45.332;10.230;2022-07-09T06:51:31;3.65;;;1.30;;
45764;SDS011;31474;45.332;10.230;2022-07-09T06:53:57;3.30;;;1.08;;
45764;SDS011;31474;45.332;10.230;2022-07-09T06:56:23;3.53;;;1.23;;
45764;SDS011;31474;45.332;10.230;2022-07-09T06:58:48;1.50;;;0.80;;
45764;SDS011;31474;45.332;10.230;2022-07-09T07:01:14;1.98;;;0.90;;
45764;SDS011;31474;45.332;10.230;2022-07-09T07:03:40;1.42;;;0.93;;
45764;SDS011;31474;45.332;10.230;2022-07-09T07:06:05;1.77;;;1.00;;
45764;SDS011;31474;45.332;10.230;2022-07-09T07:08:31;1.60;;;0.82;;
45764;SDS011;31474;45.332;10.230;2022-07-09T07:10:57;1.65;;;1.00;;
45764;SDS011;31474;45.332;10.230;2022-07-09T07:13:22;2.40;;;0.80;;
45764;SDS011;31474;45.332;10.230;2022-07-09T07:15:48;1.38;;;0.70;;
45764;SDS011;31474;45.332;10.230;2022-07-09T07:18:15;0.70;;;0.50;;
45764;SDS011;31474;45.332;10.230;2022-07-09T07:20:41;1.40;;;0.52;;
45764;SDS011;31474;45.332;10.230;2022-07-09T07:23:08;1.33;;;0.60;;
45764;SDS011;31474;45.332;10.230;2022-07-09T07:25:33;2.85;;;0.63;;
45764;SDS011;31474;45.332;10.230;2022-07-09T07:27:59;2.08;;;0.50;;
45764;SDS011;31474;45.332;10.230;2022-07-09T07:30:26;3.40;;;0.80;;
45764;SDS011;31474;45.332;10.230;2022-07-09T07:32:52;1.77;;;0.60;;
45764;SDS011;31474;45.332;10.230;2022-07-09T07:35:17;1.60;;;0.68;;
45764;SDS011;31474;45.332;10.230;2022-07-09T07:37:43;1.75;;;0.60;;
45764;SDS011;31474;45.332;10.230;2022-07-09T07:40:09;1.42;;;0.63;;
45764;SDS011;31474;45.332;10.230;2022-07-09T07:42:35;2.75;;;0.95;;
45764;SDS011;31474;45.332;10.230;2022-07-09T07:45:01;1.58;;;0.60;;
45764;SDS011;31474;45.332;10.230;2022-07-09T07:47:27;1.05;;;0.68;;
45764;SDS011;31474;45.332;10.230;2022-07-09T07:49:52;2.45;;;0.55;;
45764;SDS011;31474;45.332;10.230;2022-07-09T07:52:19;2.05;;;0.70;;
45764;SDS011;31474;45.332;10.230;2022-07-09T07:54:44;2.03;;;0.70;;
45764;SDS011;31474;45.332;10.230;2022-07-09T07:57:10;1.20;;;0.90;;
45764;SDS011;31474;45.332;10.230;2022-07-09T07:59:36;1.30;;;0.68;;
45764;SDS011;31474;45.332;10.230;2022-07-09T08:02:01;4.78;;;1.58;;
45764;SDS011;31474;45.332;10.230;2022-07-09T08:04:27;2.03;;;0.70;;
45764;SDS011;31474;45.332;10.230;2022-07-09T08:06:53;1.98;;;0.73;;
45764;SDS011;31474;45.332;10.230;2022-07-09T08:09:18;1.73;;;0.80;;
45764;SDS011;31474;45.332;10.230;2022-07-09T08:11:45;1.80;;;0.77;;
45764;SDS011;31474;45.332;10.230;2022-07-09T08:14:11;2.47;;;0.70;;
45764;SDS011;31474;45.332;10.230;2022-07-09T08:16:36;2.65;;;0.60;;
45764;SDS011;31474;45.332;10.230;2022-07-09T08:19:02;4.18;;;0.70;;
45764;SDS011;31474;45.332;10.230;2022-07-09T08:21:28;1.00;;;0.70;;
45764;SDS011;31474;45.332;10.230;2022-07-09T08:23:53;2.85;;;0.80;;
45764;SDS011;31474;45.332;10.230;2022-07-09T08:26:20;6.85;;;1.10;;
45764;SDS011;31474;45.332;10.230;2022-07-09T08:28:47;3.88;;;1.48;;
45764;SDS011;31474;45.332;10.230;2022-07-09T08:31:16;3.03;;;0.80;;
45764;SDS011;31474;45.332;10.230;2022-07-09T08:33:43;1.88;;;0.40;;
45764;SDS011;31474;45.332;10.230;2022-07-09T08:36:09;0.90;;;0.63;;
45764;SDS011;31474;45.332;10.230;2022-07-09T08:38:35;1.85;;;0.50;;
45764;SDS011;31474;45.332;10.230;2022-07-09T08:41:01;2.90;;;0.65;;
45764;SDS011;31474;45.332;10.230;2022-07-09T08:43:29;2.25;;;0.63;;
45764;SDS011;31474;45.332;10.230;2022-07-09T08:45:58;4.95;;;0.70;;
45764;SDS011;31474;45.332;10.230;2022-07-09T08:48:24;3.08;;;1.00;;
45764;SDS011;31474;45.332;10.230;2022-07-09T08:50:50;1.38;;;0.75;;
45764;SDS011;31474;45.332;10.230;2022-07-09T08:53:17;1.23;;;0.52;;
45764;SDS011;31474;45.332;10.230;2022-07-09T08:55:46;1.77;;;0.82;;
45764;SDS011;31474;45.332;10.230;2022-07-09T08:58:12;0.93;;;0.50;;
45764;SDS011;31474;45.332;10.230;2022-07-09T09:00:39;1.30;;;0.60;;
45764;SDS011;31474;45.332;10.230;2022-07-09T09:03:05;1.38;;;0.60;;
45764;SDS011;31474;45.332;10.230;2022-07-09T09:05:31;1.30;;;0.93;;
45764;SDS011;31474;45.332;10.230;2022-07-09T09:07:57;4.78;;;0.50;;
45764;SDS011;31474;45.332;10.230;2022-07-09T09:10:25;4.82;;;0.70;;
45764;SDS011;31474;45.332;10.230;2022-07-09T09:12:56;1.08;;;0.50;;
45764;SDS011;31474;45.332;10.230;2022-07-09T09:15:22;0.65;;;0.40;;
45764;SDS011;31474;45.332;10.230;2022-07-09T09:17:48;1.23;;;0.60;;
45764;SDS011;31474;45.332;10.230;2022-07-09T09:20:14;2.28;;;0.90;;
45764;SDS011;31474;45.332;10.230;2022-07-09T09:22:47;3.65;;;0.50;;
45764;SDS011;31474;45.332;10.230;2022-07-09T09:25:15;2.65;;;0.68;;
45764;SDS011;31474;45.332;10.230;2022-07-09T09:27:49;1.58;;;0.73;;
45764;SDS011;31474;45.332;10.230;2022-07-09T09:30:18;2.83;;;0.65;;
45764;SDS011;31474;45.332;10.230;2022-07-09T09:32:44;1.10;;;0.50;;
45764;SDS011;31474;45.332;10.230;2022-07-09T09:35:20;2.33;;;0.45;;
45764;SDS011;31474;45.332;10.230;2022-07-09T09:37:46;2.28;;;0.75;;
45764;SDS011;31474;45.332;10.230;2022-07-09T09:40:11;3.30;;;0.55;;
45764;SDS011;31474;45.332;10.230;2022-07-09T09:42:39;1.85;;;0.50;;
45764;SDS011;31474;45.332;10.230;2022-07-09T09:45:06;1.48;;;0.60;;
45764;SDS011;31474;45.332;10.230;2022-07-09T09:47:33;2.40;;;0.47;;
45764;SDS011;31474;45.332;10.230;2022-07-09T09:50:00;5.97;;;0.75;;
45764;SDS011;31474;45.332;10.230;2022-07-09T09:52:26;1.10;;;0.68;;
45764;SDS011;31474;45.332;10.230;2022-07-09T09:54:52;0.95;;;0.45;;
45764;SDS011;31474;45.332;10.230;2022-07-09T09:57:21;3.63;;;0.60;;
45764;SDS011;31474;45.332;10.230;2022-07-09T09:59:49;4.47;;;0.80;;
45764;SDS011;31474;45.332;10.230;2022-07-09T10:02:17;1.67;;;0.65;;
45764;SDS011;31474;45.332;10.230;2022-07-09T10:04:45;1.05;;;0.50;;
45764;SDS011;31474;45.332;10.230;2022-07-09T10:07:12;5.05;;;0.63;;
45764;SDS011;31474;45.332;10.230;2022-07-09T10:09:39;10.18;;;1.00;;
45764;SDS011;31474;45.332;10.230;2022-07-09T10:12:05;2.20;;;0.68;;
45764;SDS011;31474;45.332;10.230;2022-07-09T10:14:34;2.15;;;0.40;;
45764;SDS011;31474;45.332;10.230;2022-07-09T10:17:08;3.60;;;0.60;;
45764;SDS011;31474;45.332;10.230;2022-07-09T10:19:36;0.50;;;0.38;;
45764;SDS011;31474;45.332;10.230;2022-07-09T10:22:02;3.83;;;0.95;;
45764;SDS011;31474;45.332;10.230;2022-07-09T10:24:29;2.50;;;0.75;;
45764;SDS011;31474;45.332;10.230;2022-07-09T10:27:08;0.90;;;0.40;;
45764;SDS011;31474;45.332;10.230;2022-07-09T10:29:36;1.70;;;0.55;;
45764;SDS011;31474;45.332;10.230;2022-07-09T10:32:26;2.53;;;0.50;;
45764;SDS011;31474;45.332;10.230;2022-07-09T10:34:53;1.98;;;0.63;;
45764;SDS011;31474;45.332;10.230;2022-07-09T10:42:38;1.65;;;0.43;;
45764;SDS011;31474;45.332;10.230;2022-07-09T10:48:03;2.65;;;0.45;;
45764;SDS011;31474;45.332;10.230;2022-07-09T10:50:32;1.42;;;0.80;;
45764;SDS011;31474;45.332;10.230;2022-07-09T10:53:00;2.97;;;0.60;;
45764;SDS011;31474;45.332;10.230;2022-07-09T10:55:27;3.95;;;0.85;;
45764;SDS011;31474;45.332;10.230;2022-07-09T10:57:53;1.58;;;0.88;;
45764;SDS011;31474;45.332;10.230;2022-07-09T11:00:21;1.83;;;0.60;;
45764;SDS011;31474;45.332;10.230;2022-07-09T11:05:21;3.55;;;1.38;;
45764;SDS011;31474;45.332;10.230;2022-07-09T11:10:30;3.70;;;0.65;;
45764;SDS011;31474;45.332;10.230;2022-07-09T11:12:57;3.63;;;0.60;;
45764;SDS011;31474;45.332;10.230;2022-07-09T11:15:25;0.88;;;0.50;;
45764;SDS011;31474;45.332;10.230;2022-07-09T11:18:02;0.88;;;0.40;;
45764;SDS011;31474;45.332;10.230;2022-07-09T11:20:29;0.68;;;0.40;;
45764;SDS011;31474;45.332;10.230;2022-07-09T11:22:56;3.85;;;0.60;;
45764;SDS011;31474;45.332;10.230;2022-07-09T11:25:24;1.25;;;0.50;;
45764;SDS011;31474;45.332;10.230;2022-07-09T11:27:52;3.17;;;0.50;;
45764;SDS011;31474;45.332;10.230;2022-07-09T11:30:22;2.67;;;0.65;;
45764;SDS011;31474;45.332;10.230;2022-07-09T11:32:49;1.50;;;0.50;;
45764;SDS011;31474;45.332;10.230;2022-07-09T11:35:28;1.00;;;0.45;;
45764;SDS011;31474;45.332;10.230;2022-07-09T11:37:56;0.90;;;0.60;;
45764;SDS011;31474;45.332;10.230;2022-07-09T11:40:22;1.20;;;0.60;;
45764;SDS011;31474;45.332;10.230;2022-07-09T11:42:49;3.45;;;1.00;;
45764;SDS011;31474;45.332;10.230;2022-07-09T11:45:19;2.22;;;0.47;;
45764;SDS011;31474;45.332;10.230;2022-07-09T11:47:49;2.25;;;0.50;;
45764;SDS011;31474;45.332;10.230;2022-07-09T11:50:26;1.58;;;0.40;;
45764;SDS011;31474;45.332;10.230;2022-07-09T11:52:52;2.58;;;0.50;;
45764;SDS011;31474;45.332;10.230;2022-07-09T11:55:19;1.02;;;0.40;;
45764;SDS011;31474;45.332;10.230;2022-07-09T11:57:56;0.43;;;0.30;;
45764;SDS011;31474;45.332;10.230;2022-07-09T12:00:23;1.13;;;0.63;;
45764;SDS011;31474;45.332;10.230;2022-07-09T12:02:52;5.95;;;0.85;;
45764;SDS011;31474;45.332;10.230;2022-07-09T12:05:27;3.60;;;0.50;;
45764;SDS011;31474;45.332;10.230;2022-07-09T12:07:58;5.07;;;0.70;;
45764;SDS011;31474;45.332;10.230;2022-07-09T12:10:28;1.92;;;0.68;;
45764;SDS011;31474;45.332;10.230;2022-07-09T12:12:56;1.52;;;0.70;;
45764;SDS011;31474;45.332;10.230;2022-07-09T12:15:22;1.15;;;0.50;;
45764;SDS011;31474;45.332;10.230;2022-07-09T12:17:52;2.05;;;0.47;;
45764;SDS011;31474;45.332;10.230;2022-07-09T12:20:20;0.63;;;0.30;;
45764;SDS011;31474;45.332;10.230;2022-07-09T12:22:46;0.68;;;0.50;;
45764;SDS011;31474;45.332;10.230;2022-07-09T12:25:12;4.82;;;0.77;;
45764;SDS011;31474;45.332;10.230;2022-07-09T12:27:38;3.05;;;0.60;;
45764;SDS011;31474;45.332;10.230;2022-07-09T12:30:04;1.95;;;0.60;;
45764;SDS011;31474;45.332;10.230;2022-07-09T12:32:30;1.15;;;0.50;;
45764;SDS011;31474;45.332;10.230;2022-07-09T12:34:56;1.15;;;0.88;;
45764;SDS011;31474;45.332;10.230;2022-07-09T12:37:22;3.30;;;0.50;;
45764;SDS011;31474;45.332;10.230;2022-07-09T12:39:47;0.80;;;0.50;;
45764;SDS011;31474;45.332;10.230;2022-07-09T12:42:14;0.50;;;0.40;;
45764;SDS011;31474;45.332;10.230;2022-07-09T12:44:40;2.55;;;0.40;;
45764;SDS011;31474;45.332;10.230;2022-07-09T12:47:06;1.23;;;0.55;;
45764;SDS011;31474;45.332;10.230;2022-07-09T12:49:32;3.35;;;0.88;;
45764;SDS011;31474;45.332;10.230;2022-07-09T12:51:57;3.65;;;0.68;;
45764;SDS011;31474;45.332;10.230;2022-07-09T12:54:23;2.13;;;0.93;;
45764;SDS011;31474;45.332;10.230;2022-07-09T12:56:48;1.10;;;0.68;;
45764;SDS011;31474;45.332;10.230;2022-07-09T12:59:15;0.82;;;0.77;;
45764;SDS011;31474;45.332;10.230;2022-07-09T13:01:42;2.67;;;0.60;;
45764;SDS011;31474;45.332;10.230;2022-07-09T13:04:08;4.38;;;0.80;;
45764;SDS011;31474;45.332;10.230;2022-07-09T13:06:34;1.75;;;0.40;;
45764;SDS011;31474;45.332;10.230;2022-07-09T13:09:04;2.15;;;0.77;;
45764;SDS011;31474;45.332;10.230;2022-07-09T13:11:31;2.10;;;0.65;;
45764;SDS011;31474;45.332;10.230;2022-07-09T13:13:57;1.67;;;0.60;;
45764;SDS011;31474;45.332;10.230;2022-07-09T13:16:23;1.95;;;0.50;;
45764;SDS011;31474;45.332;10.230;2022-07-09T13:18:50;1.15;;;0.43;;
45764;SDS011;31474;45.332;10.230;2022-07-09T13:21:16;2.00;;;0.63;;
45764;SDS011;31474;45.332;10.230;2022-07-09T13:23:46;1.35;;;0.68;;
45764;SDS011;31474;45.332;10.230;2022-07-09T13:26:12;2.55;;;0.50;;
45764;SDS011;31474;45.332;10.230;2022-07-09T13:28:38;3.97;;;0.57;;
45764;SDS011;31474;45.332;10.230;2022-07-09T13:31:05;2.47;;;0.60;;
45764;SDS011;31474;45.332;10.230;2022-07-09T13:33:31;2.08;;;0.60;;
45764;SDS011;31474;45.332;10.230;2022-07-09T13:35:58;4.22;;;0.68;;
45764;SDS011;31474;45.332;10.230;2022-07-09T13:38:24;1.67;;;0.55;;
45764;SDS011;31474;45.332;10.230;2022-07-09T13:40:50;2.47;;;0.60;;
45764;SDS011;31474;45.332;10.230;2022-07-09T13:43:15;2.03;;;0.65;;
45764;SDS011;31474;45.332;10.230;2022-07-09T13:45:41;1.90;;;1.00;;
45764;SDS011;31474;45.332;10.230;2022-07-09T13:48:06;1.38;;;0.63;;
45764;SDS011;31474;45.332;10.230;2022-07-09T13:50:32;2.08;;;0.65;;
45764;SDS011;31474;45.332;10.230;2022-07-09T13:52:58;0.70;;;0.40;;
45764;SDS011;31474;45.332;10.230;2022-07-09T13:55:23;1.23;;;0.60;;
45764;SDS011;31474;45.332;10.230;2022-07-09T13:57:49;0.90;;;0.70;;
45764;SDS011;31474;45.332;10.230;2022-07-09T14:00:15;3.22;;;0.60;;
45764;SDS011;31474;45.332;10.230;2022-07-09T14:02:40;3.97;;;0.90;;
45764;SDS011;31474;45.332;10.230;2022-07-09T14:05:06;2.72;;;0.80;;
45764;SDS011;31474;45.332;10.230;2022-07-09T14:07:32;1.73;;;0.90;;
45764;SDS011;31474;45.332;10.230;2022-07-09T14:09:57;3.90;;;1.02;;
45764;SDS011;31474;45.332;10.230;2022-07-09T14:12:23;2.35;;;0.75;;
45764;SDS011;31474;45.332;10.230;2022-07-09T14:14:49;1.15;;;0.70;;
45764;SDS011;31474;45.332;10.230;2022-07-09T14:17:16;1.98;;;0.52;;
45764;SDS011;31474;45.332;10.230;2022-07-09T14:19:42;1.88;;;0.80;;
45764;SDS011;31474;45.332;10.230;2022-07-09T14:22:08;4.28;;;1.20;;
45764;SDS011;31474;45.332;10.230;2022-07-09T14:24:33;0.80;;;0.47;;
45764;SDS011;31474;45.332;10.230;2022-07-09T14:26:59;2.83;;;0.77;;
45764;SDS011;31474;45.332;10.230;2022-07-09T14:29:25;4.10;;;0.75;;
45764;SDS011;31474;45.332;10.230;2022-07-09T14:31:51;1.85;;;0.65;;
45764;SDS011;31474;45.332;10.230;2022-07-09T14:34:17;1.05;;;0.70;;
45764;SDS011;31474;45.332;10.230;2022-07-09T14:36:43;1.63;;;0.80;;
45764;SDS011;31474;45.332;10.230;2022-07-09T14:39:09;1.23;;;0.75;;
45764;SDS011;31474;45.332;10.230;2022-07-09T14:41:35;1.10;;;0.65;;
45764;SDS011;31474;45.332;10.230;2022-07-09T14:44:01;1.00;;;0.70;;